Kapellen, Belgium
Current Conditions -  °F | °C
As of 4:20 PM on Saturday 22 Nov 2014 (Local Time) from EBAW Reporting Station
Clear Clear  
Wind Chill: 54°   Ceiling: Unl
Heat Index: 54°   Visibility: 6mi
Dew Point: 48°   Wind: 3mph
Humidity: 82%   Direction: 130°SE
Pressure: 30"   Gusts: NA
Location:  51.31°N, 4.44°E
Report Text: EBAW 221520Z 13003KT CAVOK 12/09 Q1016 NOSIG
Loading
Personal Weather Stations






























Interactive Weather Map New forecast layout! Learn more

10-Day Weather Forecast

Advertisements
Track Severe Weather on mobile